Time;durP1;ratioP1;P1;durP2;ratioP2;P2;SDS_P1;SDS_P2;PMS_P1;PMS_P2;Temp;Humidity;BMP_temperature;BMP_pressure;BME280_temperature;BME280_humidity;BME280_pressure;Samples;Min_cycle;Max_cycle;Signal;HPM_P1;HPM_P2
2021/12/30 00:01:15;;;;;;;0.50;0.10;;;13.70;99.90;;;;;;5023299;28;20049;-78
2021/12/30 00:03:42;;;;;;;0.35;0.10;;;13.70;99.90;;;;;;5006942;28;20034;-79
2021/12/30 00:06:10;;;;;;;1.30;0.38;;;13.70;99.90;;;;;;5026300;28;20047;-78
2021/12/30 00:08:36;;;;;;;;;;;13.60;99.90;;;;;;5044447;28;20040;-77
2021/12/30 00:11:03;;;;;;;1.30;0.20;;;13.50;99.90;;;;;;5042702;28;19912;-79
2021/12/30 00:13:29;;;;;;;0.45;0.20;;;13.50;99.90;;;;;;5044149;28;20089;-78
2021/12/30 00:15:55;;;;;;;1.40;0.20;;;13.30;99.90;;;;;;5041125;28;20048;-77
2021/12/30 00:18:22;;;;;;;0.80;0.10;;;13.40;99.90;;;;;;5043001;28;20045;-80
2021/12/30 00:20:47;;;;;;;0.82;0.25;;;13.30;99.90;;;;;;5042223;28;20320;-78
2021/12/30 00:23:13;;;;;;;0.68;0.10;;;13.30;99.90;;;;;;5042605;28;20029;-78
2021/12/30 00:25:41;;;;;;;1.60;0.52;;;13.30;99.90;;;;;;5042336;28;20036;-79
2021/12/30 00:28:13;;;;;;;;;;;13.40;99.90;;;;;;5043285;28;20025;-78
2021/12/30 00:30:39;;;;;;;0.90;0.20;;;13.50;99.90;;;;;;5042231;28;20222;-79
2021/12/30 00:33:06;;;;;;;5.13;0.32;;;13.60;99.90;;;;;;5041938;28;20048;-79
2021/12/30 00:35:32;;;;;;;1.08;0.20;;;13.70;99.90;;;;;;5042829;28;20041;-80
2021/12/30 00:37:58;;;;;;;0.85;0.35;;;13.70;99.90;;;;;;5025585;28;20056;-79
2021/12/30 00:40:24;;;;;;;2.60;0.30;;;13.70;99.90;;;;;;5021270;28;20085;-78
2021/12/30 00:42:50;;;;;;;1.48;0.30;;;13.90;99.90;;;;;;5022888;28;20052;-79
2021/12/30 00:45:16;;;;;;;2.55;0.28;;;13.80;99.90;;;;;;5021609;28;20053;-77
2021/12/30 00:47:42;;;;;;;2.22;0.50;;;13.80;99.90;;;;;;5023191;28;20093;-78
2021/12/30 00:50:09;;;;;;;1.65;0.40;;;13.80;99.90;;;;;;5022242;28;20186;-78
2021/12/30 00:52:35;;;;;;;2.40;0.40;;;13.80;99.90;;;;;;5021798;28;20305;-78
2021/12/30 00:55:02;;;;;;;2.60;0.40;;;13.80;99.90;;;;;;5022486;28;20107;-79
2021/12/30 00:57:28;;;;;;;1.92;0.30;;;13.90;99.90;;;;;;5021636;28;20036;-78
2021/12/30 00:59:53;;;;;;;1.65;0.30;;;13.80;99.90;;;;;;5021328;28;20061;-78
2021/12/30 01:02:19;;;;;;;2.90;0.47;;;13.80;99.90;;;;;;5019810;28;20263;-78
2021/12/30 01:04:45;;;;;;;3.58;0.40;;;13.80;99.90;;;;;;5021702;28;20033;-78
2021/12/30 01:07:11;;;;;;;2.25;0.25;;;13.70;99.90;;;;;;5021973;28;20053;-81
2021/12/30 01:09:37;;;;;;;1.85;0.30;;;13.60;99.90;;;;;;5022574;28;20026;-80
2021/12/30 01:12:03;;;;;;;1.83;0.47;;;13.60;99.90;;;;;;5022269;28;20104;-79
2021/12/30 01:14:31;;;;;;;2.42;0.38;;;13.60;99.90;;;;;;5022384;28;20049;-78
2021/12/30 01:17:10;;;;;;;2.10;0.25;;;13.60;99.90;;;;;;5022107;28;20038;-78
2021/12/30 01:19:55;;;;;;;1.08;0.35;;;13.70;99.90;;;;;;5021987;28;20072;-78
2021/12/30 01:22:26;;;;;;;3.10;0.22;;;13.60;99.90;;;;;;5021108;28;20317;-79
2021/12/30 01:24:52;;;;;;;1.17;0.20;;;13.60;99.90;;;;;;5021756;28;20045;-78
2021/12/30 01:27:19;;;;;;;0.93;0.20;;;13.70;99.90;;;;;;5022333;28;20209;-78
2021/12/30 01:29:45;;;;;;;1.13;0.20;;;13.60;99.90;;;;;;5005184;28;20026;-78
2021/12/30 01:32:11;;;;;;;1.45;0.50;;;13.50;99.90;;;;;;5022197;28;20028;-78
2021/12/30 01:34:36;;;;;;;2.15;0.40;;;13.50;99.90;;;;;;5021415;28;20042;-78
2021/12/30 01:37:04;;;;;;;1.92;0.32;;;13.60;99.90;;;;;;5028106;28;20025;-79
2021/12/30 01:39:32;;;;;;;2.13;0.30;;;13.60;99.90;;;;;;5022060;28;20038;-78
2021/12/30 01:41:59;;;;;;;0.85;0.20;;;13.70;99.90;;;;;;5022111;28;20040;-78
2021/12/30 01:44:28;;;;;;;1.02;0.20;;;13.50;99.90;;;;;;5021522;28;20706;-78
2021/12/30 01:46:53;;;;;;;;;;;13.50;99.90;;;;;;5021152;28;20061;-79
2021/12/30 01:49:21;;;;;;;0.85;0.38;;;13.50;99.90;;;;;;5022121;28;19912;-79
2021/12/30 01:51:48;;;;;;;2.17;0.38;;;13.50;99.90;;;;;;5023057;28;20201;-80
2021/12/30 01:54:14;;;;;;;1.23;0.30;;;13.30;99.90;;;;;;5040876;28;20310;-78
2021/12/30 01:56:40;;;;;;;1.40;0.35;;;13.50;99.90;;;;;;5024826;28;20049;-77
2021/12/30 01:59:07;;;;;;;2.63;0.93;;;13.40;99.90;;;;;;5025557;28;20097;-78
2021/12/30 02:01:33;;;;;;;2.35;0.60;;;13.20;99.90;;;;;;5024366;28;20064;-78
2021/12/30 02:03:59;;;;;;;2.83;0.70;;;13.20;99.90;;;;;;5025448;28;20088;-78
2021/12/30 02:06:25;;;;;;;1.98;0.40;;;13.20;99.90;;;;;;5025444;28;20045;-77
2021/12/30 02:08:51;;;;;;;3.95;0.73;;;13.00;99.90;;;;;;5025586;28;20018;-78
2021/12/30 02:11:18;;;;;;;1.73;0.30;;;12.80;99.90;;;;;;5024845;28;20053;-77
2021/12/30 02:13:46;;;;;;;2.03;0.40;;;12.80;99.90;;;;;;5025216;28;20029;-79
2021/12/30 02:16:12;;;;;;;1.80;0.50;;;12.70;99.90;;;;;;5025726;28;20042;-78
2021/12/30 02:18:38;;;;;;;1.20;0.30;;;12.90;99.90;;;;;;5034504;28;20025;-76
2021/12/30 02:21:03;;;;;;;3.83;0.73;;;12.90;99.90;;;;;;5038115;28;20021;-76
2021/12/30 02:23:35;;;;;;;2.35;0.60;;;12.90;99.90;;;;;;5032795;28;20057;-78
2021/12/30 02:26:13;;;;;;;2.85;0.40;;;12.90;99.90;;;;;;5025450;28;20042;-79
2021/12/30 02:28:40;;;;;;;2.90;0.60;;;13.00;99.90;;;;;;5025313;28;20026;-79
2021/12/30 02:31:15;;;;;;;2.35;0.50;;;13.00;99.90;;;;;;5024792;28;20037;-80
2021/12/30 02:33:42;;;;;;;3.00;0.57;;;13.10;99.90;;;;;;5025550;28;20033;-79
2021/12/30 02:36:08;;;;;;;1.77;0.45;;;13.20;99.90;;;;;;5026917;28;20056;-79
2021/12/30 02:38:35;;;;;;;2.85;0.50;;;13.20;99.90;;;;;;5044120;28;20022;-77
2021/12/30 02:41:02;;;;;;;1.55;0.47;;;13.20;99.90;;;;;;5044477;28;20022;-79
2021/12/30 02:43:30;;;;;;;1.60;0.35;;;13.30;99.90;;;;;;5044853;28;20063;-79
2021/12/30 02:45:57;;;;;;;3.15;0.40;;;13.10;99.90;;;;;;5044359;28;20033;-79
2021/12/30 02:48:27;;;;;;;2.45;0.50;;;13.20;99.90;;;;;;5026863;28;20363;-78
2021/12/30 02:50:55;;;;;;;3.92;0.90;;;13.20;99.90;;;;;;5044603;28;20223;-79
2021/12/30 02:53:21;;;;;;;;;;;13.00;99.90;;;;;;5043914;28;20324;-78
2021/12/30 02:55:49;;;;;;;2.15;0.40;;;13.00;99.90;;;;;;5044812;28;20000;-78
2021/12/30 02:58:15;;;;;;;2.28;0.30;;;13.00;99.90;;;;;;5043616;28;20350;-80
2021/12/30 03:00:42;;;;;;;2.55;0.40;;;13.00;99.90;;;;;;5045301;28;20041;-78
2021/12/30 03:03:16;;;;;;;2.40;0.40;;;13.20;99.90;;;;;;5043002;28;20017;-79
2021/12/30 03:05:42;;;;;;;2.83;0.40;;;13.40;99.90;;;;;;5044034;28;20041;-79
2021/12/30 03:08:08;;;;;;;2.38;0.40;;;13.40;99.90;;;;;;5043903;28;20171;-77
2021/12/30 03:10:34;;;;;;;1.77;0.40;;;13.60;99.90;;;;;;5045981;28;20034;-77
2021/12/30 03:13:09;;;;;;;2.97;0.40;;;13.70;99.90;;;;;;5044307;28;20029;-78
2021/12/30 03:15:36;;;;;;;0.70;0.20;;;13.70;99.90;;;;;;5044430;28;20108;-79
2021/12/30 03:18:02;;;;;;;1.17;0.30;;;13.80;99.90;;;;;;5042831;28;20109;-79
2021/12/30 03:20:32;;;;;;;3.15;0.40;;;13.70;99.90;;;;;;5043971;28;20029;-77
2021/12/30 03:22:57;;;;;;;1.58;0.22;;;13.60;99.90;;;;;;5042913;28;20065;-77
2021/12/30 03:25:23;;;;;;;2.55;0.40;;;13.60;99.90;;;;;;5043894;28;20349;-78
2021/12/30 03:27:49;;;;;;;1.48;0.20;;;13.60;99.90;;;;;;5044021;28;20037;-78
2021/12/30 03:30:16;;;;;;;1.50;0.30;;;13.70;99.90;;;;;;5043816;28;20053;-77
2021/12/30 03:32:43;;;;;;;2.95;0.40;;;13.70;99.90;;;;;;5043946;28;20049;-77
2021/12/30 03:35:09;;;;;;;1.27;0.32;;;13.70;99.90;;;;;;5043259;28;20123;-79
2021/12/30 03:37:35;;;;;;;1.80;0.38;;;13.60;99.90;;;;;;5028683;28;20338;-77
2021/12/30 03:40:03;;;;;;;0.98;0.20;;;13.60;99.90;;;;;;5041304;28;20055;-78
2021/12/30 03:42:29;;;;;;;1.67;0.30;;;13.60;99.90;;;;;;5041924;28;20130;-79
2021/12/30 03:44:57;;;;;;;1.42;0.22;;;13.50;99.90;;;;;;5041364;28;20315;-79
2021/12/30 03:47:24;;;;;;;1.55;0.50;;;13.40;99.90;;;;;;5040923;28;20076;-79
2021/12/30 03:49:49;;;;;;;1.08;0.32;;;13.40;99.90;;;;;;5041642;28;20108;-80
2021/12/30 03:52:23;;;;;;;1.80;0.25;;;13.40;99.90;;;;;;5040918;28;20037;-77
2021/12/30 03:54:49;;;;;;;2.67;0.40;;;13.40;99.90;;;;;;5041376;28;20060;-79
2021/12/30 03:57:14;;;;;;;2.83;0.40;;;13.30;99.90;;;;;;5040389;28;20025;-79
2021/12/30 03:59:40;;;;;;;3.22;0.52;;;13.30;99.90;;;;;;5041397;28;20251;-79
2021/12/30 04:02:06;;;;;;;1.50;0.30;;;13.20;99.90;;;;;;5040601;28;20045;-78
2021/12/30 04:04:32;;;;;;;2.20;0.55;;;13.10;99.90;;;;;;5041076;28;20029;-78
2021/12/30 04:06:58;;;;;;;2.35;0.47;;;13.10;99.90;;;;;;5041329;28;20033;-77
2021/12/30 04:09:24;;;;;;;3.53;0.98;;;13.10;99.90;;;;;;5040705;28;20095;-78
2021/12/30 04:11:50;;;;;;;2.55;0.70;;;13.00;99.90;;;;;;5022057;28;20109;-78
2021/12/30 04:14:16;;;;;;;2.55;0.43;;;13.00;99.90;;;;;;5022534;28;20068;-79
2021/12/30 04:16:42;;;;;;;2.42;0.90;;;13.00;99.90;;;;;;5023628;28;20064;-78
2021/12/30 04:19:07;;;;;;;2.42;0.63;;;13.00;99.90;;;;;;5021802;28;20038;-78
2021/12/30 04:21:33;;;;;;;1.33;0.40;;;13.00;99.90;;;;;;5005486;28;20097;-78
2021/12/30 04:24:00;;;;;;;2.35;0.40;;;13.00;99.90;;;;;;5023105;28;20289;-78
2021/12/30 04:26:26;;;;;;;0.68;0.30;;;13.10;99.90;;;;;;5022634;28;20325;-78
2021/12/30 04:28:52;;;;;;;1.92;0.40;;;13.10;99.90;;;;;;5022112;28;20320;-77
2021/12/30 04:31:18;;;;;;;1.98;0.50;;;13.10;99.90;;;;;;5021276;28;20030;-77
2021/12/30 04:33:43;;;;;;;1.13;0.30;;;13.10;99.90;;;;;;5022843;28;20038;-78
2021/12/30 04:36:10;;;;;;;1.88;0.30;;;13.20;99.90;;;;;;5025805;28;20072;-77
2021/12/30 04:38:36;;;;;;;2.50;0.40;;;13.30;99.90;;;;;;5043253;28;20021;-77
2021/12/30 04:41:04;;;;;;;1.17;0.30;;;13.20;99.90;;;;;;5042950;28;20342;-78
2021/12/30 04:43:30;;;;;;;1.48;0.50;;;13.20;99.90;;;;;;5043020;28;20044;-78
2021/12/30 04:45:58;;;;;;;1.10;0.30;;;13.20;99.90;;;;;;5041660;28;20029;-78
2021/12/30 04:48:23;;;;;;;1.02;0.25;;;13.10;99.90;;;;;;5042801;28;20237;-78
2021/12/30 04:50:49;;;;;;;1.90;0.30;;;13.10;99.90;;;;;;5042033;28;20088;-79
2021/12/30 04:53:17;;;;;;;0.82;0.20;;;13.10;99.90;;;;;;5041621;28;20038;-78
2021/12/30 04:55:43;;;;;;;0.95;0.20;;;13.10;99.90;;;;;;5042681;28;20359;-78
2021/12/30 04:58:09;;;;;;;1.92;0.30;;;13.10;99.90;;;;;;5042468;28;20029;-77
2021/12/30 05:00:35;;;;;;;1.33;0.30;;;13.10;99.90;;;;;;5042375;28;20079;-78
2021/12/30 05:03:09;;;;;;;1.80;0.22;;;13.00;99.90;;;;;;5042579;28;20299;-78
2021/12/30 05:05:55;;;;;;;2.03;0.30;;;13.00;99.90;;;;;;5041253;28;20041;-78
2021/12/30 05:08:24;;;;;;;1.98;0.30;;;13.00;99.90;;;;;;5041480;28;20034;-78
2021/12/30 05:10:50;;;;;;;;;;;12.90;99.90;;;;;;5041591;28;20034;-78
2021/12/30 05:13:16;;;;;;;3.35;1.00;;;12.90;99.90;;;;;;5042054;28;19901;-77
2021/12/30 05:15:42;;;;;;;3.92;1.15;;;12.80;99.90;;;;;;5041350;28;20154;-78
2021/12/30 05:18:11;;;;;;;3.78;1.30;;;12.80;99.90;;;;;;5041992;28;20029;-77
2021/12/30 05:20:38;;;;;;;2.58;0.60;;;12.70;99.90;;;;;;5040794;28;20041;-78
2021/12/30 05:23:05;;;;;;;3.10;0.68;;;12.70;99.90;;;;;;5033933;28;20013;-79
2021/12/30 05:25:31;;;;;;;2.25;0.63;;;12.60;99.90;;;;;;5038410;28;20038;-78
2021/12/30 05:27:57;;;;;;;3.75;0.80;;;12.50;99.90;;;;;;5052595;28;20075;-78
2021/12/30 05:30:24;;;;;;;3.35;0.40;;;12.50;99.90;;;;;;5044655;28;20052;-77
2021/12/30 05:32:52;;;;;;;1.40;0.40;;;12.40;99.90;;;;;;5028083;28;20204;-77
2021/12/30 05:35:18;;;;;;;1.38;0.40;;;12.40;99.90;;;;;;5045597;28;20096;-78
2021/12/30 05:37:44;;;;;;;3.33;0.35;;;12.40;99.90;;;;;;5028330;28;20276;-77
2021/12/30 05:40:14;;;;;;;3.67;1.10;;;12.40;99.90;;;;;;5024277;28;20033;-77
2021/12/30 05:42:41;;;;;;;2.33;0.73;;;12.40;99.90;;;;;;5026391;28;20022;-78
2021/12/30 05:45:08;;;;;;;4.03;1.05;;;12.40;99.90;;;;;;5025742;28;20256;-77
2021/12/30 05:47:34;;;;;;;2.50;1.00;;;12.30;99.90;;;;;;5025806;28;20116;-78
2021/12/30 05:50:06;;;;;;;3.30;0.70;;;12.30;99.90;;;;;;5026048;28;20033;-77
2021/12/30 05:52:32;;;;;;;5.72;0.80;;;12.40;99.90;;;;;;5024922;28;20088;-76
2021/12/30 05:54:58;;;;;;;2.50;0.40;;;12.30;99.90;;;;;;5026010;28;20028;-79
2021/12/30 05:57:24;;;;;;;2.22;0.68;;;12.30;99.90;;;;;;5024475;28;20053;-77
2021/12/30 05:59:50;;;;;;;2.03;0.35;;;12.40;99.90;;;;;;5026270;28;20100;-78
2021/12/30 06:02:16;;;;;;;1.42;0.50;;;12.40;99.90;;;;;;5035517;28;20029;-78
2021/12/30 06:04:41;;;;;;;1.45;0.40;;;12.40;99.90;;;;;;5045411;28;20021;-78
2021/12/30 06:07:09;;;;;;;1.70;0.50;;;12.40;99.90;;;;;;5045194;28;20048;-78
2021/12/30 06:09:35;;;;;;;1.70;0.63;;;12.40;99.90;;;;;;5045431;28;20041;-77
2021/12/30 06:12:01;;;;;;;2.42;0.60;;;12.40;99.90;;;;;;5045735;28;20021;-77
2021/12/30 06:14:27;;;;;;;1.63;0.50;;;12.40;99.90;;;;;;5045154;28;20316;-79
2021/12/30 06:16:53;;;;;;;1.85;0.50;;;12.40;99.90;;;;;;5044802;28;20053;-79
2021/12/30 06:19:20;;;;;;;1.88;0.70;;;12.40;99.90;;;;;;5044609;28;20021;-78
2021/12/30 06:21:46;;;;;;;1.50;0.60;;;12.40;99.90;;;;;;5043947;28;20052;-78
2021/12/30 06:24:12;;;;;;;1.00;0.40;;;12.40;99.90;;;;;;5044375;28;20049;-77
2021/12/30 06:26:57;;;;;;;2.15;0.50;;;12.40;99.90;;;;;;5044216;28;20053;-78
2021/12/30 06:29:41;;;;;;;2.10;0.60;;;12.50;99.90;;;;;;5044769;28;20028;-78
2021/12/30 06:32:26;;;;;;;1.20;0.40;;;12.50;99.90;;;;;;5043266;28;20044;-79
2021/12/30 06:35:11;;;;;;;1.00;0.30;;;12.50;99.90;;;;;;5044234;28;20040;-79
2021/12/30 06:37:55;;;;;;;1.77;0.40;;;12.50;99.90;;;;;;5042682;28;20060;-78
2021/12/30 06:40:39;;;;;;;1.02;0.30;;;12.50;99.90;;;;;;5044763;28;20047;-78
2021/12/30 06:43:24;;;;;;;1.88;0.63;;;12.50;99.90;;;;;;5044275;28;20032;-78
2021/12/30 06:46:10;;;;;;;2.35;0.60;;;12.50;99.90;;;;;;5044137;28;20048;-78
2021/12/30 06:48:54;;;;;;;2.45;0.60;;;12.60;99.90;;;;;;5044515;28;20227;-78
2021/12/30 06:51:39;;;;;;;1.02;0.40;;;12.60;99.90;;;;;;5044386;28;20036;-79
2021/12/30 06:54:24;;;;;;;1.30;0.10;;;12.70;99.90;;;;;;5043821;28;20144;-78
2021/12/30 06:57:12;;;;;;;1.20;0.20;;;12.70;99.90;;;;;;5044424;28;20035;-79
2021/12/30 06:59:39;;;;;;;1.50;0.40;;;12.80;99.90;;;;;;5042903;28;20033;-78
2021/12/30 07:02:06;;;;;;;1.77;0.22;;;12.80;99.90;;;;;;5042558;28;20053;-79
2021/12/30 07:04:32;;;;;;;1.52;0.43;;;12.80;99.90;;;;;;5043321;28;20240;-77
2021/12/30 07:06:58;;;;;;;1.42;0.55;;;12.70;99.90;;;;;;5044192;28;20037;-77
2021/12/30 07:09:24;;;;;;;2.10;0.60;;;12.60;99.90;;;;;;5042707;28;20036;-77
2021/12/30 07:11:52;;;;;;;3.00;0.60;;;12.60;99.90;;;;;;5044086;28;20013;-77
2021/12/30 07:14:19;;;;;;;2.42;0.57;;;12.60;99.90;;;;;;5041987;28;20031;-76
2021/12/30 07:16:45;;;;;;;2.03;0.60;;;12.50;99.90;;;;;;5042348;28;20044;-77
2021/12/30 07:19:11;;;;;;;2.88;1.00;;;12.60;99.90;;;;;;5025967;28;20327;-78
2021/12/30 07:21:38;;;;;;;1.80;0.70;;;12.60;99.90;;;;;;5025275;28;20037;-78
2021/12/30 07:24:04;;;;;;;1.60;0.65;;;12.60;99.90;;;;;;5041681;28;20137;-78
2021/12/30 07:26:30;;;;;;;2.95;0.80;;;12.60;99.90;;;;;;5042186;28;20075;-78
2021/12/30 07:28:56;;;;;;;2.35;0.98;;;12.60;99.90;;;;;;5043747;28;20312;-78
2021/12/30 07:31:21;;;;;;;14.77;2.30;;;12.50;99.90;;;;;;5042847;28;20128;-78
2021/12/30 07:33:47;;;;;;;4.57;1.10;;;12.50;99.90;;;;;;5043680;28;20059;-77
2021/12/30 07:36:13;;;;;;;2.47;0.80;;;12.50;99.90;;;;;;5039774;28;20053;-78
2021/12/30 07:38:39;;;;;;;7.25;1.45;;;12.60;99.90;;;;;;5043221;28;20088;-77
2021/12/30 07:41:05;;;;;;;2.83;0.82;;;12.50;99.90;;;;;;5042580;28;20033;-77
2021/12/30 07:43:33;;;;;;;4.43;1.10;;;12.50;99.90;;;;;;5041681;28;20033;-78
2021/12/30 07:45:59;;;;;;;2.88;1.00;;;12.60;99.90;;;;;;5025413;28;20037;-77
2021/12/30 07:48:25;;;;;;;3.25;1.17;;;12.50;99.90;;;;;;5042818;28;20036;-78
2021/12/30 07:50:51;;;;;;;3.15;0.63;;;12.60;99.90;;;;;;5041915;28;20100;-77
2021/12/30 07:53:17;;;;;;;2.22;0.55;;;12.70;99.90;;;;;;5043353;28;20089;-78
2021/12/30 07:55:43;;;;;;;5.05;0.85;;;12.70;99.90;;;;;;5043206;28;20029;-78
2021/12/30 07:58:09;;;;;;;2.60;0.75;;;12.80;99.90;;;;;;5043464;28;20186;-78
2021/12/30 08:00:35;;;;;;;0.47;0.17;;;12.80;99.90;;;;;;5041965;28;20087;-78
2021/12/30 08:03:00;;;;;;;2.25;0.60;;;12.80;99.90;;;;;;5042971;28;20228;-78
2021/12/30 08:05:28;;;;;;;1.33;0.60;;;12.90;99.90;;;;;;5042796;28;20029;-78
2021/12/30 08:07:54;;;;;;;2.22;0.80;;;12.90;99.90;;;;;;5042024;28;20289;-78
2021/12/30 08:10:22;;;;;;;1.85;0.50;;;12.90;99.90;;;;;;5042707;28;20060;-77
2021/12/30 08:12:49;;;;;;;3.20;0.50;;;13.00;99.90;;;;;;5043227;28;20060;-78
2021/12/30 08:15:16;;;;;;;3.38;0.60;;;13.00;99.90;;;;;;5041141;28;20472;-77
2021/12/30 08:17:43;;;;;;;5.22;0.47;;;13.10;99.90;;;;;;5043179;28;20075;-76
2021/12/30 08:20:10;;;;;;;1.05;0.20;;;13.20;99.90;;;;;;5043633;28;20025;-76
2021/12/30 08:22:36;;;;;;;3.65;0.68;;;13.30;99.90;;;;;;5041581;28;20037;-77
2021/12/30 08:25:04;;;;;;;1.30;0.57;;;13.40;99.90;;;;;;5043222;28;20319;-77
2021/12/30 08:27:30;;;;;;;0.38;0.10;;;13.40;99.90;;;;;;5041485;28;20267;-76
2021/12/30 08:29:55;;;;;;;0.85;0.30;;;13.50;99.90;;;;;;5056266;28;20025;-77
2021/12/30 08:32:41;;;;;;;0.60;0.20;;;13.50;99.90;;;;;;5054352;28;20064;-78
2021/12/30 08:35:10;;;;;;;0.80;0.10;;;13.70;99.90;;;;;;5043569;28;20029;-78
2021/12/30 08:37:36;;;;;;;0.10;0.00;;;13.70;99.90;;;;;;5026867;28;20057;-78
2021/12/30 08:40:05;;;;;;;0.40;0.10;;;13.80;99.90;;;;;;5022829;28;20090;-78
2021/12/30 08:42:31;;;;;;;0.70;0.10;;;13.80;99.90;;;;;;5022268;28;20087;-77
2021/12/30 08:44:59;;;;;;;0.68;0.20;;;13.90;99.90;;;;;;5022667;28;20022;-77
2021/12/30 08:47:27;;;;;;;0.63;0.10;;;13.90;99.90;;;;;;5021785;28;20117;-78
2021/12/30 08:49:53;;;;;;;1.10;0.15;;;13.90;99.90;;;;;;5023516;28;20029;-77
2021/12/30 08:52:22;;;;;;;1.33;0.28;;;13.80;99.90;;;;;;5032094;28;20108;-78
2021/12/30 08:54:49;;;;;;;0.47;0.20;;;13.90;99.90;;;;;;5033364;28;20022;-78
2021/12/30 08:57:17;;;;;;;0.30;0.10;;;13.80;99.90;;;;;;5022628;28;20044;-79
2021/12/30 08:59:43;;;;;;;0.93;0.20;;;13.90;99.90;;;;;;5035031;28;20064;-78
2021/12/30 09:02:09;;;;;;;0.80;0.10;;;13.90;99.90;;;;;;5040889;28;20464;-76
2021/12/30 09:04:36;;;;;;;1.25;0.28;;;14.00;99.90;;;;;;5041786;28;20068;-77
2021/12/30 09:07:02;;;;;;;0.30;0.10;;;14.00;99.90;;;;;;5029075;28;20129;-77
2021/12/30 09:09:28;;;;;;;0.95;0.20;;;14.10;99.90;;;;;;5043059;28;20096;-77
2021/12/30 09:11:55;;;;;;;1.38;0.20;;;14.20;99.90;;;;;;5040984;28;20071;-77
2021/12/30 09:14:21;;;;;;;0.47;0.15;;;14.30;99.90;;;;;;5041563;28;20184;-77
2021/12/30 09:16:48;;;;;;;0.63;0.15;;;14.40;99.90;;;;;;5040433;28;20347;-79
2021/12/30 09:19:15;;;;;;;0.43;0.10;;;14.60;99.90;;;;;;5024474;28;20375;-78
2021/12/30 09:21:41;;;;;;;0.70;0.10;;;14.70;99.90;;;;;;5041666;28;20091;-79
2021/12/30 09:24:09;;;;;;;0.30;0.10;;;14.90;99.90;;;;;;5041814;28;20038;-79
2021/12/30 09:26:35;;;;;;;1.40;0.10;;;15.00;99.90;;;;;;5033848;28;20026;-78
2021/12/30 09:29:01;;;;;;;1.10;0.28;;;15.20;99.90;;;;;;5022387;28;20034;-79
2021/12/30 09:31:30;;;;;;;0.25;0.10;;;15.40;99.90;;;;;;5021288;28;20045;-77
2021/12/30 09:33:57;;;;;;;0.77;0.10;;;15.50;99.90;;;;;;5004558;28;20056;-77
2021/12/30 09:36:26;;;;;;;1.70;0.20;;;15.50;99.90;;;;;;5026370;28;20105;-77
2021/12/30 09:38:52;;;;;;;1.27;0.30;;;15.50;99.90;;;;;;5040986;28;20049;-78
2021/12/30 09:41:18;;;;;;;0.60;0.20;;;15.60;99.90;;;;;;5042018;28;20282;-81
2021/12/30 09:43:44;;;;;;;0.43;0.10;;;15.60;99.90;;;;;;5039784;28;20029;-77
2021/12/30 09:46:10;;;;;;;0.82;0.20;;;15.70;99.90;;;;;;5040107;28;20037;-77
2021/12/30 09:48:36;;;;;;;1.15;0.30;;;15.70;99.90;;;;;;5040588;28;20038;-77
2021/12/30 09:51:02;;;;;;;0.28;0.10;;;15.60;99.90;;;;;;5042244;28;20021;-77
2021/12/30 09:53:27;;;;;;;0.60;0.20;;;15.70;99.90;;;;;;5040138;28;20320;-80
2021/12/30 09:55:59;;;;;;;0.25;0.10;;;15.80;99.90;;;;;;5041855;28;20032;-77
2021/12/30 09:58:27;;;;;;;0.30;0.10;;;15.90;99.90;;;;;;5040424;28;20186;-79
2021/12/30 10:00:55;;;;;;;1.10;0.28;;;15.80;99.90;;;;;;5041294;28;20068;-79
2021/12/30 10:03:21;;;;;;;1.10;0.10;;;15.90;99.90;;;;;;5041543;28;20127;-76
2021/12/30 10:05:46;;;;;;;0.40;0.10;;;16.00;99.90;;;;;;5041332;28;20052;-79
2021/12/30 10:08:24;;;;;;;0.77;0.20;;;16.00;99.90;;;;;;5040619;28;20040;-80
2021/12/30 10:11:11;;;;;;;1.02;0.20;;;16.00;99.90;;;;;;5041792;28;20101;-81
2021/12/30 10:13:40;;;;;;;1.10;0.13;;;16.10;99.90;;;;;;5041798;28;20029;-78
2021/12/30 10:16:13;;;;;;;2.35;0.28;;;16.30;99.90;;;;;;5044548;28;20414;-79
2021/12/30 10:18:53;;;;;;;0.50;0.10;;;16.30;99.90;;;;;;5043759;28;20108;-79
2021/12/30 10:21:23;;;;;;;0.80;0.22;;;16.20;99.90;;;;;;5044280;28;20268;-80
2021/12/30 10:23:53;;;;;;;0.93;0.30;;;16.30;99.90;;;;;;5043864;28;20110;-79
2021/12/30 10:26:19;;;;;;;1.23;0.30;;;16.20;99.90;;;;;;5047838;28;20037;-78
2021/12/30 10:28:49;;;;;;;1.15;0.20;;;16.20;99.90;;;;;;5044527;28;20250;-78
2021/12/30 10:31:22;;;;;;;2.13;0.30;;;16.30;99.90;;;;;;5042841;28;20235;-77
2021/12/30 10:33:53;;;;;;;1.52;0.20;;;16.30;99.90;;;;;;5044450;28;20029;-79
2021/12/30 10:36:42;;;;;;;1.02;0.20;;;16.50;99.90;;;;;;5044920;28;20032;-78
2021/12/30 10:39:32;;;;;;;1.23;0.38;;;16.50;99.90;;;;;;4999371;28;20208;-78
2021/12/30 10:41:58;;;;;;;0.80;0.25;;;16.90;99.90;;;;;;5005691;28;20033;-78
2021/12/30 10:44:24;;;;;;;0.80;0.30;;;17.10;99.90;;;;;;5023427;28;20041;-79
2021/12/30 10:46:52;;;;;;;0.70;0.25;;;17.40;99.90;;;;;;5005719;28;20053;-79
2021/12/30 10:49:25;;;;;;;1.83;0.28;;;17.40;99.90;;;;;;5006761;28;20101;-80
2021/12/30 10:51:53;;;;;;;0.63;0.20;;;17.50;99.90;;;;;;5006573;28;20026;-80
2021/12/30 10:54:39;;;;;;;0.60;0.20;;;17.60;99.90;;;;;;5005928;28;20038;-79
2021/12/30 10:57:07;;;;;;;3.35;0.98;;;17.60;99.90;;;;;;4998159;28;20344;-78
2021/12/30 10:59:41;;;;;;;2.53;0.70;;;17.60;99.90;;;;;;5002254;28;20289;-78
2021/12/30 11:02:17;;;;;;;1.55;0.52;;;18.00;99.90;;;;;;5013976;28;20041;-79
2021/12/30 11:04:57;;;;;;;0.98;0.32;;;17.90;99.90;;;;;;5021941;28;20168;-79
2021/12/30 11:07:43;;;;;;;2.08;0.70;;;18.20;99.90;;;;;;5022863;28;20348;-80
2021/12/30 11:10:09;;;;;;;0.93;0.30;;;18.50;99.90;;;;;;5007788;28;20224;-81
2021/12/30 11:12:38;;;;;;;1.17;0.30;;;18.50;99.90;;;;;;5023040;28;20017;-80
2021/12/30 11:15:21;;;;;;;0.85;0.30;;;18.60;99.90;;;;;;5022062;28;20273;-79
2021/12/30 11:17:48;;;;;;;1.90;0.77;;;19.30;99.90;;;;;;5027830;28;20583;-81
2021/12/30 11:20:20;;;;;;;2.05;0.80;;;19.90;99.90;;;;;;5023685;28;20017;-80
2021/12/30 11:22:48;;;;;;;0.90;0.30;;;20.00;99.90;;;;;;5024783;28;20304;-79
2021/12/30 11:25:17;;;;;;;1.98;0.47;;;19.90;99.90;;;;;;5042977;28;20324;-81
2021/12/30 11:27:44;;;;;;;1.33;0.43;;;19.90;99.90;;;;;;5026126;28;20148;-79
2021/12/30 11:30:14;;;;;;;0.70;0.20;;;19.30;99.90;;;;;;5045424;28;20033;-80
2021/12/30 11:32:41;;;;;;;1.65;0.60;;;19.30;99.90;;;;;;5058187;28;20025;-79
2021/12/30 11:35:08;;;;;;;2.63;0.82;;;19.00;99.90;;;;;;5058217;28;20052;-79
2021/12/30 11:37:34;;;;;;;1.60;0.50;;;19.20;99.90;;;;;;5045308;28;20033;-78
2021/12/30 11:40:06;;;;;;;0.63;0.28;;;19.10;99.90;;;;;;5040878;28;20079;-79
2021/12/30 11:42:41;;;;;;;0.77;0.20;;;19.10;99.90;;;;;;5042236;28;20026;-79
2021/12/30 11:45:28;;;;;;;1.02;0.30;;;19.10;99.90;;;;;;5041830;28;20312;-80
2021/12/30 11:47:59;;;;;;;1.05;0.30;;;19.70;99.90;;;;;;5043459;28;20189;-77
2021/12/30 11:50:37;;;;;;;1.10;0.20;;;19.90;99.90;;;;;;5026035;28;20075;-79
2021/12/30 11:53:12;;;;;;;1.13;0.30;;;20.10;99.90;;;;;;5043752;28;20027;-79
2021/12/30 11:55:59;;;;;;;0.75;0.15;;;20.40;99.90;;;;;;5042327;28;20037;-79
2021/12/30 11:58:28;;;;;;;0.50;0.10;;;20.00;99.90;;;;;;5041799;28;20025;-81
2021/12/30 12:00:56;;;;;;;1.23;0.40;;;19.90;99.90;;;;;;5026947;28;20141;-78
2021/12/30 12:03:32;;;;;;;0.43;0.15;;;19.70;99.90;;;;;;5026753;28;20017;-81
2021/12/30 12:05:58;;;;;;;0.20;0.13;;;19.40;99.90;;;;;;5042434;28;20292;-81
2021/12/30 12:08:40;;;;;;;0.70;0.25;;;19.00;99.90;;;;;;5043271;28;20025;-79
2021/12/30 12:11:44;;;;;;;1.20;0.40;;;19.00;99.90;;;;;;5043150;28;20032;-79
2021/12/30 12:14:22;;;;;;;1.10;0.30;;;18.70;99.90;;;;;;5041811;28;20041;-80
2021/12/30 12:16:51;;;;;;;0.83;0.30;;;18.70;99.90;;;;;;5038757;28;20045;-82
2021/12/30 12:19:19;;;;;;;0.80;0.20;;;19.30;99.90;;;;;;5023093;28;20045;-79
2021/12/30 12:21:49;;;;;;;1.00;0.28;;;20.60;99.90;;;;;;5023082;28;20096;-82
2021/12/30 12:24:20;;;;;;;0.60;0.17;;;21.30;99.90;;;;;;5021776;28;20050;-80
2021/12/30 12:26:48;;;;;;;0.80;0.30;;;21.20;99.90;;;;;;5021512;28;20133;-78
2021/12/30 12:29:42;;;;;;;0.60;0.10;;;20.90;99.90;;;;;;5021600;28;20037;-79
2021/12/30 12:32:12;;;;;;;1.00;0.30;;;20.60;99.90;;;;;;5033082;28;20045;-78
2021/12/30 12:34:37;;;;;;;0.47;0.15;;;20.20;99.90;;;;;;5022044;28;20305;-81
2021/12/30 12:37:04;;;;;;;0.43;0.10;;;20.00;99.90;;;;;;5040529;28;20105;-79
2021/12/30 12:39:37;;;;;;;0.65;0.20;;;19.70;99.90;;;;;;5042714;28;20051;-80
2021/12/30 12:42:05;;;;;;;0.68;0.10;;;19.20;99.90;;;;;;5041155;28;20354;-79
2021/12/30 12:44:31;;;;;;;1.17;0.30;;;18.80;99.90;;;;;;5041960;28;20056;-79
2021/12/30 12:46:59;;;;;;;0.60;0.15;;;18.40;99.90;;;;;;5041370;28;20122;-80
2021/12/30 12:49:34;;;;;;;1.13;0.20;;;18.00;99.90;;;;;;5041605;28;20075;-79
2021/12/30 12:52:03;;;;;;;0.35;0.10;;;17.70;99.90;;;;;;5036602;28;20026;-79
2021/12/30 12:54:37;;;;;;;0.30;0.10;;;17.50;99.90;;;;;;5024644;28;20021;-79
2021/12/30 12:57:11;;;;;;;0.75;0.20;;;17.30;99.90;;;;;;5042283;28;20045;-79